createdAt,value
2022-09-20T00:00:45.902Z,59.48
2022-09-20T00:02:47.498Z,59.69
2022-09-20T00:04:49.816Z,59.97
2022-09-20T00:06:51.535Z,59.98
2022-09-20T00:09:04.477Z,59.92
2022-09-20T00:11:10.201Z,60.01
2022-09-20T00:13:13.738Z,59.74
2022-09-20T00:15:15.424Z,59.71
2022-09-20T00:17:17.029Z,59.99
2022-09-20T00:19:21.755Z,59.99
2022-09-20T00:21:29.026Z,60.02
2022-09-20T00:23:31.462Z,60.39
2022-09-20T00:25:33.492Z,60.79
2022-09-20T00:27:35.098Z,60.43
2022-09-20T00:29:36.808Z,60.84
2022-09-20T00:31:40.441Z,60.38
2022-09-20T00:34:00.679Z,60.81
2022-09-20T00:36:02.541Z,61.08
2022-09-20T00:38:04.160Z,60.75
2022-09-20T00:40:08.841Z,61.41
2022-09-20T00:42:14.980Z,61.19
2022-09-20T00:44:53.824Z,61.06
2022-09-20T00:46:55.570Z,60.96
2022-09-20T00:49:22.424Z,60.91
2022-09-20T00:51:29.870Z,61.17
2022-09-20T00:53:36.903Z,61.12
2022-09-20T00:55:43.339Z,61.07
2022-09-20T00:57:46.027Z,61.38
2022-09-20T00:59:51.105Z,61.17
2022-09-20T01:02:00.458Z,61.35
2022-09-20T01:04:03.711Z,60.54
2022-09-20T01:06:10.472Z,60.93
2022-09-20T01:08:13.018Z,61.15
2022-09-20T01:10:14.662Z,60.84
2022-09-20T01:12:20.665Z,61.13
2022-09-20T01:14:24.484Z,60.65
2022-09-20T01:16:28.073Z,60.34
2022-09-20T01:18:32.086Z,60.19
2022-09-20T01:20:37.088Z,60.23
2022-09-20T01:22:51.397Z,60.42
2022-09-20T01:25:20.510Z,59.86
2022-09-20T01:27:49.173Z,60.38
2022-09-20T01:30:08.166Z,60.11
2022-09-20T01:32:14.415Z,59.83
2022-09-20T01:34:29.799Z,59.89
2022-09-20T01:36:39.802Z,59.83
2022-09-20T01:39:19.153Z,60.24
2022-09-20T01:41:29.157Z,60.11
2022-09-20T01:43:36.408Z,59.63
2022-09-20T01:45:45.302Z,60.33
2022-09-20T01:48:05.767Z,60.78
2022-09-20T01:50:07.330Z,60.89
2022-09-20T01:52:14.740Z,60.93
2022-09-20T01:54:36.675Z,60.92
2022-09-20T01:57:15.597Z,61.66
2022-09-20T01:59:55.079Z,61.58
2022-09-20T02:02:18.507Z,61.90
2022-09-20T02:04:35.399Z,61.68
2022-09-20T02:06:54.016Z,61.62
2022-09-20T02:09:25.242Z,61.64
2022-09-20T02:11:52.413Z,61.83
2022-09-20T02:14:06.409Z,61.83
2022-09-20T02:16:20.279Z,61.48
2022-09-20T02:19:03.418Z,61.86
2022-09-20T02:21:20.154Z,61.52
2022-09-20T02:23:40.344Z,61.79
2022-09-20T02:25:52.958Z,61.37
2022-09-20T02:28:03.511Z,61.15
2022-09-20T02:30:13.731Z,61.32
2022-09-20T02:32:18.346Z,61.04
2022-09-20T02:34:46.374Z,60.88
2022-09-20T02:37:08.151Z,60.67
2022-09-20T02:39:15.885Z,60.46
2022-09-20T02:41:24.799Z,60.27
2022-09-20T02:44:05.201Z,59.86
2022-09-20T02:46:15.814Z,59.98
2022-09-20T02:48:24.328Z,59.74
2022-09-20T02:50:31.630Z,60.01
2022-09-20T02:52:49.504Z,59.89
2022-09-20T02:55:00.115Z,60.01
2022-09-20T02:57:04.586Z,59.95
2022-09-20T02:59:26.454Z,59.89
2022-09-20T03:02:00.009Z,59.16
2022-09-20T03:04:34.917Z,59.29
2022-09-20T03:07:04.172Z,58.20
2022-09-20T03:09:31.275Z,57.77
2022-09-20T03:11:49.177Z,58.30
2022-09-20T03:14:09.946Z,57.91
2022-09-20T03:16:43.662Z,57.78
2022-09-20T03:19:00.584Z,57.82
2022-09-20T03:21:22.785Z,57.57
2022-09-20T03:24:12.500Z,57.20
2022-09-20T03:26:49.336Z,57.46
2022-09-20T03:29:03.739Z,57.77
2022-09-20T03:31:11.701Z,57.62
2022-09-20T03:33:26.637Z,57.72
2022-09-20T03:35:49.755Z,57.68
2022-09-20T03:38:31.127Z,57.91
2022-09-20T03:40:47.842Z,57.61
2022-09-20T03:42:52.632Z,58.00
2022-09-20T03:45:24.368Z,57.83
2022-09-20T03:47:54.420Z,57.46
2022-09-20T03:50:17.141Z,58.26
2022-09-20T03:52:39.485Z,58.08
2022-09-20T03:54:42.677Z,58.10
2022-09-20T03:56:53.282Z,58.33
2022-09-20T03:59:17.912Z,58.44
2022-09-20T04:01:34.880Z,58.35
2022-09-20T04:03:53.962Z,59.01
2022-09-20T04:06:29.528Z,58.85
2022-09-20T04:08:49.939Z,59.08
2022-09-20T04:11:13.228Z,59.31
2022-09-20T04:13:26.671Z,59.39
2022-09-20T04:15:58.231Z,59.26
2022-09-20T04:18:24.571Z,59.15
2022-09-20T04:20:38.689Z,58.96
2022-09-20T04:22:42.395Z,59.18
2022-09-20T04:24:53.775Z,59.43
2022-09-20T04:27:20.242Z,59.09
2022-09-20T04:29:35.115Z,59.45
2022-09-20T04:31:45.501Z,59.39
2022-09-20T04:33:52.264Z,59.26
2022-09-20T04:36:30.846Z,59.57
2022-09-20T04:38:33.874Z,59.77
2022-09-20T04:40:56.974Z,59.86
2022-09-20T04:43:36.107Z,59.88
2022-09-20T04:46:12.301Z,59.57
2022-09-20T04:48:39.144Z,59.64
2022-09-20T04:51:10.932Z,59.79
2022-09-20T04:53:44.951Z,59.78
2022-09-20T04:55:49.815Z,59.93
2022-09-20T04:57:53.993Z,59.66
2022-09-20T05:00:08.766Z,60.32
2022-09-20T05:02:28.869Z,60.49
2022-09-20T05:04:47.335Z,60.10
2022-09-20T05:07:10.415Z,60.48
2022-09-20T05:09:39.227Z,59.99
2022-09-20T05:11:47.049Z,60.06
2022-09-20T05:14:42.518Z,60.44
2022-09-20T05:17:04.501Z,60.64
2022-09-20T05:19:17.085Z,60.37
2022-09-20T05:21:44.506Z,60.44
2022-09-20T05:24:17.177Z,60.61
2022-09-20T05:26:40.298Z,60.90
2022-09-20T05:28:41.944Z,60.62
2022-09-20T05:30:50.715Z,60.97
2022-09-20T05:33:10.625Z,60.88
2022-09-20T05:35:57.227Z,61.06
2022-09-20T05:38:24.158Z,60.65
2022-09-20T05:40:53.597Z,60.64
2022-09-20T05:42:58.625Z,60.67
2022-09-20T05:45:46.321Z,61.01
2022-09-20T05:47:59.653Z,61.36
2022-09-20T05:50:29.794Z,61.22
2022-09-20T05:52:51.709Z,61.31
2022-09-20T05:55:11.225Z,61.50
2022-09-20T05:57:44.871Z,61.80
2022-09-20T06:00:02.002Z,61.96
2022-09-20T06:02:40.381Z,62.19
2022-09-20T06:04:56.668Z,62.26
2022-09-20T06:07:20.056Z,62.37
2022-09-20T06:10:09.590Z,62.49
2022-09-20T06:12:29.075Z,62.38
2022-09-20T06:14:51.970Z,62.65
2022-09-20T06:16:59.727Z,62.60
2022-09-20T06:19:20.222Z,62.68
2022-09-20T06:21:21.854Z,62.62
2022-09-20T06:23:24.595Z,62.34
2022-09-20T06:25:32.449Z,62.55
2022-09-20T06:27:55.095Z,62.58
2022-09-20T06:30:02.038Z,62.47
2022-09-20T06:32:03.788Z,62.28
2022-09-20T06:34:13.451Z,62.28
2022-09-20T06:36:45.427Z,62.05
2022-09-20T06:39:30.530Z,62.00
2022-09-20T06:41:34.848Z,62.01
2022-09-20T06:43:37.166Z,61.69
2022-09-20T06:45:38.817Z,61.93
2022-09-20T06:47:40.547Z,61.97
2022-09-20T06:49:42.861Z,61.79
2022-09-20T06:51:44.540Z,62.09
2022-09-20T06:53:46.339Z,62.16
2022-09-20T06:55:57.575Z,62.24
2022-09-20T06:57:59.338Z,61.82
2022-09-20T07:00:01.361Z,61.66
2022-09-20T07:02:03.113Z,61.69
2022-09-20T07:04:06.333Z,62.00
2022-09-20T07:06:09.543Z,61.86
2022-09-20T07:08:12.607Z,61.83
2022-09-20T07:10:15.537Z,61.21
2022-09-20T07:12:17.211Z,61.11
2022-09-20T07:14:19.266Z,61.10
2022-09-20T07:16:21.379Z,60.93
2022-09-20T07:18:23.156Z,60.60
2022-09-20T07:20:24.890Z,60.57
2022-09-20T07:22:27.796Z,60.88
2022-09-20T07:24:43.430Z,60.60
2022-09-20T07:26:59.536Z,60.77
2022-09-20T07:29:02.256Z,60.96
2022-09-20T07:31:03.958Z,60.75
2022-09-20T07:33:05.550Z,60.70
2022-09-20T07:35:09.280Z,60.44
2022-09-20T07:37:12.165Z,60.35
2022-09-20T07:39:13.833Z,60.33
2022-09-20T07:41:15.545Z,60.10
2022-09-20T07:43:17.167Z,60.02
2022-09-20T07:45:18.899Z,59.95
2022-09-20T07:47:21.465Z,59.82
2022-09-20T07:49:23.425Z,59.73
2022-09-20T07:51:25.752Z,59.83
2022-09-20T07:53:27.393Z,59.51
2022-09-20T07:55:29.083Z,59.83
2022-09-20T07:57:35.080Z,59.97
2022-09-20T07:59:36.791Z,59.83
2022-09-20T08:01:38.986Z,59.36
2022-09-20T08:03:40.772Z,59.08
2022-09-20T08:05:43.464Z,59.18
2022-09-20T08:07:45.182Z,58.60
2022-09-20T08:09:47.078Z,58.74
2022-09-20T08:11:49.813Z,58.58
2022-09-20T08:14:09.460Z,58.08
2022-09-20T08:16:15.819Z,57.69
2022-09-20T08:18:17.883Z,57.18
2022-09-20T08:20:19.673Z,56.80
2022-09-20T08:22:23.545Z,56.95
2022-09-20T08:24:27.010Z,55.53
2022-09-20T08:26:29.661Z,55.29
2022-09-20T08:30:36.188Z,54.59
2022-09-20T08:32:42.143Z,54.90
2022-09-20T08:34:49.096Z,54.36
2022-09-20T08:36:52.824Z,53.98
2022-09-20T08:43:38.972Z,53.54
2022-09-20T08:45:42.932Z,53.02
2022-09-20T08:47:54.182Z,53.07
2022-09-20T08:50:08.839Z,52.08
2022-09-20T08:52:19.445Z,52.13
2022-09-20T08:54:24.363Z,51.62
2022-09-20T09:00:41.320Z,51.25
2022-09-20T09:02:43.941Z,50.57
2022-09-20T09:06:52.868Z,48.98
2022-09-20T09:08:58.771Z,47.22
2022-09-20T09:11:08.759Z,47.71
2022-09-20T09:13:24.591Z,46.97
2022-09-20T09:15:30.247Z,46.64
2022-09-20T09:19:45.161Z,46.12
2022-09-20T09:21:47.064Z,46.26
2022-09-20T09:23:53.184Z,46.96
2022-09-20T09:25:56.330Z,47.04
2022-09-20T09:28:03.509Z,47.33
2022-09-20T09:30:21.262Z,46.42
2022-09-20T09:32:28.703Z,46.21
2022-09-20T09:36:45.087Z,45.27
2022-09-20T09:39:16.981Z,44.55
2022-09-20T09:41:30.085Z,44.62
2022-09-20T09:43:35.904Z,44.56
2022-09-20T09:45:39.648Z,44.41
2022-09-20T09:47:41.653Z,44.58
2022-09-20T09:50:03.669Z,43.00
2022-09-20T09:52:26.187Z,43.60
2022-09-20T09:54:50.427Z,42.81
2022-09-20T09:57:11.962Z,43.29
2022-09-20T09:59:26.492Z,43.05
2022-09-20T10:02:14.280Z,42.33
2022-09-20T10:04:40.080Z,42.67
2022-09-20T10:06:59.030Z,41.53
2022-09-20T10:09:10.284Z,41.12
2022-09-20T10:11:30.559Z,40.98
2022-09-20T10:13:33.478Z,40.73
2022-09-20T10:15:53.336Z,40.87
2022-09-20T10:18:17.324Z,40.92
2022-09-20T10:20:31.305Z,40.70
2022-09-20T10:22:42.152Z,40.72
2022-09-20T10:24:55.229Z,40.99
2022-09-20T10:27:17.136Z,40.99
2022-09-20T10:29:38.270Z,40.50
2022-09-20T10:31:58.082Z,40.17
2022-09-20T10:34:06.258Z,40.26
2022-09-20T10:36:29.313Z,40.70
2022-09-20T10:38:37.370Z,40.81
2022-09-20T10:41:31.248Z,40.96
2022-09-20T10:43:43.863Z,40.37
2022-09-20T10:46:31.336Z,39.77
2022-09-20T10:48:41.080Z,39.75
2022-09-20T10:50:43.659Z,40.27
2022-09-20T10:52:49.524Z,39.70
2022-09-20T10:54:58.698Z,40.05
2022-09-20T10:57:37.690Z,39.17
2022-09-20T10:59:48.593Z,39.71
2022-09-20T11:02:11.892Z,39.45
2022-09-20T11:04:50.552Z,39.67
2022-09-20T11:07:19.706Z,39.39
2022-09-20T11:09:25.931Z,39.26
2022-09-20T11:11:34.834Z,39.41
2022-09-20T11:13:50.077Z,39.71
2022-09-20T11:16:17.830Z,39.67
2022-09-20T11:18:32.100Z,39.17
2022-09-20T11:20:44.300Z,39.00
2022-09-20T11:23:14.029Z,38.39
2022-09-20T11:25:44.682Z,38.60
2022-09-20T11:27:55.674Z,39.06
2022-09-20T11:30:04.562Z,38.73
2022-09-20T11:32:17.131Z,39.24
2022-09-20T11:34:38.265Z,39.12
2022-09-20T11:36:52.320Z,38.33
2022-09-20T11:39:36.224Z,38.31
2022-09-20T11:41:38.111Z,38.28
2022-09-20T11:43:46.058Z,37.94
2022-09-20T11:45:53.140Z,37.61
2022-09-20T11:48:02.879Z,37.53
2022-09-20T11:50:29.302Z,37.17
2022-09-20T11:52:39.786Z,37.11
2022-09-20T11:54:57.518Z,37.74
2022-09-20T11:57:00.199Z,37.25
2022-09-20T11:59:03.950Z,36.89
2022-09-20T12:01:14.111Z,36.86
2022-09-20T12:03:40.226Z,36.86
2022-09-20T12:05:42.399Z,37.32
2022-09-20T12:07:44.480Z,37.17
2022-09-20T12:09:58.264Z,37.72
2022-09-20T12:12:14.672Z,37.42
2022-09-20T12:14:24.758Z,37.56
2022-09-20T12:16:42.024Z,37.36
2022-09-20T12:19:01.993Z,37.56
2022-09-20T12:21:16.615Z,37.99
2022-09-20T12:23:43.410Z,37.99
2022-09-20T12:26:02.440Z,38.46
2022-09-20T12:28:05.398Z,38.36
2022-09-20T12:30:18.184Z,37.94
2022-09-20T12:32:52.069Z,37.98
2022-09-20T12:34:53.734Z,37.68
2022-09-20T12:36:55.305Z,37.85
2022-09-20T12:39:06.618Z,38.21
2022-09-20T12:41:10.311Z,38.00
2022-09-20T12:43:20.585Z,38.04
2022-09-20T12:45:23.271Z,37.35
2022-09-20T12:47:28.996Z,37.25
2022-09-20T12:50:04.353Z,37.14
2022-09-20T12:52:39.143Z,36.87
2022-09-20T12:54:56.307Z,36.45
2022-09-20T12:57:18.011Z,36.51
2022-09-20T12:59:29.092Z,36.65
2022-09-20T13:01:34.003Z,36.82
2022-09-20T13:03:37.974Z,36.55
2022-09-20T13:05:42.442Z,36.03
2022-09-20T13:07:52.548Z,35.82
2022-09-20T13:09:54.953Z,35.79
2022-09-20T13:12:01.525Z,35.99
2022-09-20T13:14:07.024Z,36.23
2022-09-20T13:16:22.530Z,36.34
2022-09-20T13:18:26.470Z,36.31
2022-09-20T13:20:31.545Z,35.94
2022-09-20T13:22:43.673Z,36.17
2022-09-20T13:24:52.228Z,36.81
2022-09-20T13:27:00.127Z,37.01
2022-09-20T13:29:04.755Z,37.33
2022-09-20T13:31:22.056Z,37.47
2022-09-20T13:33:25.191Z,37.47
2022-09-20T13:35:32.530Z,37.95
2022-09-20T13:37:35.734Z,37.66
2022-09-20T13:39:37.726Z,38.39
2022-09-20T13:41:39.468Z,38.19
2022-09-20T13:43:43.737Z,38.23
2022-09-20T13:46:04.263Z,38.44
2022-09-20T13:48:09.462Z,38.98
2022-09-20T13:50:24.328Z,38.70
2022-09-20T13:52:28.282Z,38.90
2022-09-20T13:54:42.428Z,38.14
2022-09-20T13:56:44.284Z,37.95
2022-09-20T13:58:46.340Z,38.08
2022-09-20T14:01:20.829Z,38.35
2022-09-20T14:03:24.140Z,38.38
2022-09-20T14:05:29.208Z,38.04
2022-09-20T14:07:32.004Z,37.74
2022-09-20T14:09:39.495Z,37.08
2022-09-20T14:11:41.287Z,36.69
2022-09-20T14:13:52.327Z,36.50
2022-09-20T14:15:53.979Z,36.62
2022-09-20T14:17:56.588Z,36.59
2022-09-20T14:19:58.458Z,36.88
2022-09-20T14:22:05.267Z,37.40
2022-09-20T14:24:28.809Z,37.21
2022-09-20T14:26:39.804Z,37.65
2022-09-20T14:28:42.532Z,37.25
2022-09-20T14:30:46.107Z,36.64
2022-09-20T14:32:54.536Z,36.86
2022-09-20T14:34:56.114Z,37.42
2022-09-20T14:37:13.810Z,37.27
2022-09-20T14:39:19.037Z,37.61
2022-09-20T14:41:41.211Z,37.46
2022-09-20T14:43:43.037Z,37.12
2022-09-20T14:45:53.858Z,36.73
2022-09-20T14:48:10.403Z,36.50
2022-09-20T14:50:26.986Z,36.59
2022-09-20T14:52:35.420Z,36.76
2022-09-20T14:54:42.989Z,36.31
2022-09-20T14:56:49.425Z,36.07
2022-09-20T14:59:19.358Z,36.58
2022-09-20T15:01:25.945Z,37.29
2022-09-20T15:03:34.035Z,37.74
2022-09-20T15:05:36.151Z,38.07
2022-09-20T15:07:37.877Z,38.34
2022-09-20T15:09:39.817Z,38.76
2022-09-20T15:11:41.585Z,38.71
2022-09-20T15:13:44.119Z,38.56
2022-09-20T15:15:52.842Z,38.79
2022-09-20T15:17:54.877Z,38.70
2022-09-20T15:19:59.313Z,38.96
2022-09-20T15:22:01.159Z,38.85
2022-09-20T15:24:02.802Z,38.78
2022-09-20T15:26:05.025Z,38.46
2022-09-20T15:28:07.854Z,38.59
2022-09-20T15:30:11.701Z,38.34
2022-09-20T15:32:13.440Z,38.63
2022-09-20T15:34:16.262Z,38.53
2022-09-20T15:36:17.904Z,38.94
2022-09-20T15:38:20.091Z,38.76
2022-09-20T15:40:22.078Z,38.81
2022-09-20T15:42:23.941Z,39.05
2022-09-20T15:44:25.607Z,38.87
2022-09-20T15:46:27.593Z,38.95
2022-09-20T15:48:30.801Z,38.89
2022-09-20T15:50:32.417Z,39.16
2022-09-20T15:52:41.636Z,39.06
2022-09-20T15:54:43.493Z,39.83
2022-09-20T15:56:45.441Z,39.56
2022-09-20T15:58:50.348Z,39.12
2022-09-20T16:00:52.181Z,39.29
2022-09-20T16:02:53.919Z,39.68
2022-09-20T16:04:55.968Z,39.42
2022-09-20T16:06:57.632Z,39.51
2022-09-20T16:08:59.299Z,39.61
2022-09-20T16:11:02.417Z,40.27
2022-09-20T16:13:04.133Z,40.11
2022-09-20T16:15:06.396Z,39.93
2022-09-20T16:17:08.370Z,40.10
2022-09-20T16:19:23.928Z,39.98
2022-09-20T16:21:25.763Z,39.88
2022-09-20T16:23:27.516Z,39.57
2022-09-20T16:25:29.166Z,39.87
2022-09-20T16:27:34.735Z,39.47
2022-09-20T16:29:36.406Z,39.65
2022-09-20T16:31:42.496Z,39.58
2022-09-20T16:33:44.261Z,39.88
2022-09-20T16:35:45.923Z,40.03
2022-09-20T16:37:48.565Z,39.99
2022-09-20T16:39:50.145Z,40.15
2022-09-20T16:41:53.017Z,40.30
2022-09-20T16:43:55.357Z,40.34
2022-09-20T16:46:00.766Z,40.44
2022-09-20T16:48:08.458Z,40.42
2022-09-20T16:50:12.004Z,40.69
2022-09-20T16:52:14.407Z,40.75
2022-09-20T16:54:17.229Z,40.68
2022-09-20T16:56:28.180Z,40.97
2022-09-20T16:58:30.648Z,40.57
2022-09-20T17:00:33.803Z,40.64
2022-09-20T17:02:36.199Z,40.68
2022-09-20T17:04:37.902Z,40.88
2022-09-20T17:06:40.392Z,40.71
2022-09-20T17:08:44.807Z,40.51
2022-09-20T17:10:47.134Z,40.69
2022-09-20T17:12:52.458Z,40.80
2022-09-20T17:14:54.161Z,40.86
2022-09-20T17:16:56.747Z,40.82
2022-09-20T17:19:04.379Z,40.95
2022-09-20T17:21:06.993Z,41.08
2022-09-20T17:23:09.285Z,41.22
2022-09-20T17:25:10.950Z,41.02
2022-09-20T17:27:12.923Z,40.89
2022-09-20T17:29:17.022Z,41.26
2022-09-20T17:31:21.222Z,41.25
2022-09-20T17:33:23.069Z,41.39
2022-09-20T17:35:24.675Z,41.32
2022-09-20T17:37:26.335Z,41.43
2022-09-20T17:39:27.960Z,41.41
2022-09-20T17:41:30.314Z,41.26
2022-09-20T17:43:31.971Z,41.17
2022-09-20T17:45:33.653Z,41.11
2022-09-20T17:47:35.246Z,40.86
2022-09-20T17:49:38.506Z,41.03
2022-09-20T17:51:42.815Z,41.31
2022-09-20T17:53:45.519Z,41.01
2022-09-20T17:55:54.677Z,40.89
2022-09-20T17:57:56.282Z,40.97
2022-09-20T17:59:59.196Z,40.63
2022-09-20T18:02:08.950Z,41.06
2022-09-20T18:04:11.666Z,41.23
2022-09-20T18:06:16.750Z,41.64
2022-09-20T18:08:19.563Z,41.48
2022-09-20T18:10:21.308Z,41.65
2022-09-20T18:12:22.916Z,41.01
2022-09-20T18:14:39.275Z,42.49
2022-09-20T18:16:41.196Z,42.15
2022-09-20T18:18:43.919Z,41.58
2022-09-20T18:20:45.937Z,41.95
2022-09-20T18:22:50.769Z,41.45
2022-09-20T18:24:52.624Z,41.72
2022-09-20T18:26:54.861Z,41.85
2022-09-20T18:29:08.081Z,41.75
2022-09-20T18:31:10.346Z,41.47
2022-09-20T18:33:15.749Z,41.51
2022-09-20T18:35:17.506Z,41.88
2022-09-20T18:37:19.761Z,41.69
2022-09-20T18:39:30.377Z,42.50
2022-09-20T18:41:34.278Z,42.28
2022-09-20T18:43:40.896Z,42.50
2022-09-20T18:45:52.309Z,42.23
2022-09-20T18:47:57.330Z,42.45
2022-09-20T18:49:59.301Z,42.63
2022-09-20T18:52:01.515Z,42.38
2022-09-20T18:54:04.257Z,42.87
2022-09-20T18:56:19.404Z,42.73
2022-09-20T18:58:23.038Z,42.82
2022-09-20T19:00:25.007Z,42.65
2022-09-20T19:02:57.012Z,42.98
2022-09-20T19:05:12.064Z,43.04
2022-09-20T19:07:28.911Z,43.15
2022-09-20T19:09:37.748Z,43.39
2022-09-20T19:11:47.175Z,43.81
2022-09-20T19:14:03.197Z,43.37
2022-09-20T19:16:30.697Z,43.89
2022-09-20T19:18:35.802Z,43.65
2022-09-20T19:21:09.570Z,43.62
2022-09-20T19:23:41.880Z,44.41
2022-09-20T19:25:47.926Z,44.14
2022-09-20T19:27:50.392Z,44.10
2022-09-20T19:29:55.151Z,44.26
2022-09-20T19:32:01.064Z,44.30
2022-09-20T19:34:10.426Z,44.36
2022-09-20T19:36:13.113Z,44.98
2022-09-20T19:38:29.534Z,45.01
2022-09-20T19:40:49.001Z,44.89
2022-09-20T19:43:18.177Z,44.99
2022-09-20T19:45:29.354Z,45.49
2022-09-20T19:47:38.165Z,45.26
2022-09-20T19:50:02.852Z,45.30
2022-09-20T19:52:06.602Z,45.24
2022-09-20T19:54:14.027Z,45.63
2022-09-20T19:56:18.794Z,45.55
2022-09-20T19:58:21.338Z,45.98
2022-09-20T20:00:23.708Z,45.73
2022-09-20T20:02:34.189Z,45.69
2022-09-20T20:04:38.364Z,46.00
2022-09-20T20:07:01.298Z,45.77
2022-09-20T20:11:36.527Z,46.13
2022-09-20T20:14:08.345Z,46.07
2022-09-20T20:16:17.992Z,46.12
2022-09-20T20:18:24.785Z,46.60
2022-09-20T20:20:38.165Z,46.37
2022-09-20T20:23:02.132Z,46.29
2022-09-20T20:25:05.575Z,46.27
2022-09-20T20:27:11.850Z,46.25
2022-09-20T20:29:14.145Z,46.61
2022-09-20T20:31:16.580Z,46.54
2022-09-20T20:33:19.547Z,46.46
2022-09-20T20:35:23.146Z,46.69
2022-09-20T20:37:28.251Z,46.42
2022-09-20T20:39:32.370Z,46.58
2022-09-20T20:41:34.175Z,46.36
2022-09-20T20:43:38.976Z,46.84
2022-09-20T20:45:49.914Z,46.38
2022-09-20T20:47:56.971Z,47.04
2022-09-20T20:49:58.851Z,46.80
2022-09-20T20:52:04.874Z,46.56
2022-09-20T20:54:07.110Z,46.60
2022-09-20T20:56:12.265Z,46.62
2022-09-20T20:58:14.060Z,46.80
2022-09-20T21:02:18.454Z,46.97
2022-09-20T21:04:21.832Z,47.14
2022-09-20T21:06:26.503Z,46.95
2022-09-20T21:08:39.111Z,47.08
2022-09-20T21:10:40.911Z,47.01
2022-09-20T21:12:42.677Z,46.96
2022-09-20T21:14:44.790Z,46.62
2022-09-20T21:16:46.561Z,46.54
2022-09-20T21:18:49.899Z,46.40
2022-09-20T21:20:51.684Z,46.33
2022-09-20T21:22:53.489Z,46.12
2022-09-20T21:24:56.087Z,45.78
2022-09-20T21:26:57.850Z,45.82
2022-09-20T21:29:01.564Z,45.96
2022-09-20T21:31:05.362Z,46.08
2022-09-20T21:35:09.291Z,46.43
2022-09-20T21:37:11.019Z,46.36
2022-09-20T21:39:13.099Z,46.14
2022-09-20T21:41:17.859Z,46.15
2022-09-20T21:43:19.609Z,46.05
2022-09-20T21:45:25.659Z,46.37
2022-09-20T21:47:27.399Z,46.00
2022-09-20T21:49:29.170Z,46.03
2022-09-20T21:51:31.779Z,45.92
2022-09-20T21:53:35.303Z,46.11
2022-09-20T21:57:38.784Z,46.32
2022-09-20T21:59:40.641Z,46.29
2022-09-20T22:01:42.376Z,46.74
2022-09-20T22:03:45.348Z,46.70
2022-09-20T22:05:48.121Z,46.75
2022-09-20T22:09:52.249Z,47.23
2022-09-20T22:11:54.480Z,47.52
2022-09-20T22:13:56.982Z,47.38
2022-09-20T22:16:10.608Z,47.35
2022-09-20T22:18:12.295Z,47.67
2022-09-20T22:22:14.840Z,47.14
2022-09-20T22:24:17.420Z,47.28
2022-09-20T22:26:21.321Z,47.37
2022-09-20T22:28:23.350Z,47.59
2022-09-20T22:30:25.221Z,47.55
2022-09-20T22:32:26.904Z,47.57
2022-09-20T22:34:28.735Z,47.57
2022-09-20T22:38:36.239Z,47.81
2022-09-20T22:40:38.028Z,48.17
2022-09-20T22:42:40.059Z,48.23
2022-09-20T22:44:41.780Z,48.69
2022-09-20T22:46:43.571Z,48.33
2022-09-20T22:48:45.835Z,48.54
2022-09-20T22:50:47.534Z,48.49
2022-09-20T22:54:51.552Z,48.57
2022-09-20T22:56:53.484Z,48.82
2022-09-20T22:59:00.080Z,48.96
2022-09-20T23:01:05.370Z,48.77
2022-09-20T23:05:08.962Z,48.91
2022-09-20T23:07:11.690Z,48.79
2022-09-20T23:09:15.849Z,49.14
2022-09-20T23:11:18.917Z,49.04
2022-09-20T23:13:20.649Z,49.27
2022-09-20T23:15:22.961Z,49.39
2022-09-20T23:17:24.875Z,49.25
2022-09-20T23:19:27.132Z,49.21
2022-09-20T23:21:30.014Z,49.44
2022-09-20T23:23:32.354Z,49.50
2022-09-20T23:25:34.626Z,49.65
2022-09-20T23:27:36.799Z,49.44
2022-09-20T23:29:39.138Z,49.56
2022-09-20T23:31:46.105Z,49.73
2022-09-20T23:34:00.144Z,49.83
2022-09-20T23:36:06.027Z,49.79
2022-09-20T23:42:12.268Z,50.86
2022-09-20T23:46:16.682Z,50.83
2022-09-20T23:48:18.746Z,50.57
2022-09-20T23:50:21.256Z,50.63
2022-09-20T23:54:24.986Z,50.96
2022-09-20T23:56:27.654Z,50.77
2022-09-20T23:58:29.865Z,50.94
